sensor_id;sensor_type;location;lat;lon;timestamp;pressure;altitude;pressure_sealevel;temperature;humidity
11049;BME280;5577;42.706;23.160;2023-06-14T00:01:24;93913.06;;;16.73;100.00
11049;BME280;5577;42.706;23.160;2023-06-14T00:04:08;93915.34;;;16.74;100.00
11049;BME280;5577;42.706;23.160;2023-06-14T00:06:52;93915.34;;;16.74;100.00
11049;BME280;5577;42.706;23.160;2023-06-14T00:09:36;93917.63;;;16.72;100.00
11049;BME280;5577;42.706;23.160;2023-06-14T00:12:20;93916.09;;;16.75;100.00
11049;BME280;5577;42.706;23.160;2023-06-14T00:15:05;93914.97;;;16.76;100.00
11049;BME280;5577;42.706;23.160;2023-06-14T00:17:49;93916.88;;;16.75;100.00
11049;BME280;5577;42.706;23.160;2023-06-14T00:20:34;93916.09;;;16.75;100.00
11049;BME280;5577;42.706;23.160;2023-06-14T00:23:18;93910.75;;;16.75;100.00
11049;BME280;5577;42.706;23.160;2023-06-14T00:26:02;93914.19;;;16.72;100.00
11049;BME280;5577;42.706;23.160;2023-06-14T00:28:47;93914.56;;;16.70;100.00
11049;BME280;5577;42.706;23.160;2023-06-14T00:31:30;93897.03;;;16.69;100.00
11049;BME280;5577;42.706;23.160;2023-06-14T00:34:15;93907.72;;;16.69;100.00
11049;BME280;5577;42.706;23.160;2023-06-14T00:36:59;93898.53;;;16.70;100.00
11049;BME280;5577;42.706;23.160;2023-06-14T00:39:43;93889.78;;;16.66;100.00
11049;BME280;5577;42.706;23.160;2023-06-14T00:42:27;93880.66;;;16.57;100.00
11049;BME280;5577;42.706;23.160;2023-06-14T00:45:12;93886.38;;;16.62;100.00
11049;BME280;5577;42.706;23.160;2023-06-14T00:47:56;93887.50;;;16.65;100.00
11049;BME280;5577;42.706;23.160;2023-06-14T00:50:41;93891.72;;;16.66;100.00
11049;BME280;5577;42.706;23.160;2023-06-14T00:53:25;93891.31;;;16.64;100.00
11049;BME280;5577;42.706;23.160;2023-06-14T00:56:09;93892.13;;;16.54;100.00
11049;BME280;5577;42.706;23.160;2023-06-14T00:58:53;93895.97;;;16.56;100.00
11049;BME280;5577;42.706;23.160;2023-06-14T01:01:37;93901.66;;;16.62;100.00
11049;BME280;5577;42.706;23.160;2023-06-14T01:04:22;93889.81;;;16.59;100.00
11049;BME280;5577;42.706;23.160;2023-06-14T01:07:36;93891.00;;;16.55;100.00
11049;BME280;5577;42.706;23.160;2023-06-14T01:13:29;93887.13;;;16.59;100.00
11049;BME280;5577;42.706;23.160;2023-06-14T01:16:16;93897.06;;;16.62;100.00
11049;BME280;5577;42.706;23.160;2023-06-14T01:19:01;93893.25;;;16.63;100.00
11049;BME280;5577;42.706;23.160;2023-06-14T01:21:45;93893.69;;;16.55;100.00
11049;BME280;5577;42.706;23.160;2023-06-14T01:24:29;93885.66;;;16.51;100.00
11049;BME280;5577;42.706;23.160;2023-06-14T01:27:16;93886.78;;;16.54;100.00
11049;BME280;5577;42.706;23.160;2023-06-14T01:30:01;93884.84;;;16.58;100.00
11049;BME280;5577;42.706;23.160;2023-06-14T01:32:47;93888.28;;;16.62;100.00
11049;BME280;5577;42.706;23.160;2023-06-14T01:35:31;93883.72;;;16.59;100.00
11049;BME280;5577;42.706;23.160;2023-06-14T01:38:18;93884.44;;;16.66;100.00
11049;BME280;5577;42.706;23.160;2023-06-14T01:41:03;93879.09;;;16.70;100.00
11049;BME280;5577;42.706;23.160;2023-06-14T01:43:49;93888.28;;;16.65;100.00
11049;BME280;5577;42.706;23.160;2023-06-14T01:46:33;93893.25;;;16.60;100.00
11049;BME280;5577;42.706;23.160;2023-06-14T01:49:18;93894.03;;;16.60;100.00
11049;BME280;5577;42.706;23.160;2023-06-14T01:52:04;93901.66;;;16.62;100.00
11049;BME280;5577;42.706;23.160;2023-06-14T01:54:48;93902.41;;;16.62;100.00
11049;BME280;5577;42.706;23.160;2023-06-14T01:57:33;93897.44;;;16.61;100.00
11049;BME280;5577;42.706;23.160;2023-06-14T02:00:17;93908.53;;;16.63;100.00
11049;BME280;5577;42.706;23.160;2023-06-14T02:03:02;93901.69;;;16.55;100.00
11049;BME280;5577;42.706;23.160;2023-06-14T02:05:48;93927.59;;;16.65;100.00
11049;BME280;5577;42.706;23.160;2023-06-14T02:08:32;93921.84;;;16.66;100.00
11049;BME280;5577;42.706;23.160;2023-06-14T02:11:16;93921.09;;;16.62;100.00
11049;BME280;5577;42.706;23.160;2023-06-14T02:14:00;93924.91;;;16.68;100.00
11049;BME280;5577;42.706;23.160;2023-06-14T02:16:45;93918.44;;;16.66;100.00
11049;BME280;5577;42.706;23.160;2023-06-14T02:19:32;93911.56;;;16.61;100.00
11049;BME280;5577;42.706;23.160;2023-06-14T02:22:16;93916.91;;;16.65;100.00
11049;BME280;5577;42.706;23.160;2023-06-14T02:25:01;93917.69;;;16.62;100.00
11049;BME280;5577;42.706;23.160;2023-06-14T02:27:45;93924.94;;;16.61;100.00
11049;BME280;5577;42.706;23.160;2023-06-14T02:30:29;93926.47;;;16.59;100.00
11049;BME280;5577;42.706;23.160;2023-06-14T02:33:13;93913.16;;;16.48;100.00
11049;BME280;5577;42.706;23.160;2023-06-14T02:35:57;93922.69;;;16.53;100.00
11049;BME280;5577;42.706;23.160;2023-06-14T02:38:41;93926.13;;;16.50;100.00
11049;BME280;5577;42.706;23.160;2023-06-14T02:41:26;93894.84;;;16.33;100.00
11049;BME280;5577;42.706;23.160;2023-06-14T02:44:10;93921.16;;;16.48;100.00
11049;BME280;5577;42.706;23.160;2023-06-14T02:46:56;93907.06;;;16.48;100.00
11049;BME280;5577;42.706;23.160;2023-06-14T02:49:40;93905.91;;;16.49;100.00
11049;BME280;5577;42.706;23.160;2023-06-14T02:52:24;93913.56;;;16.43;100.00
11049;BME280;5577;42.706;23.160;2023-06-14T02:55:08;93915.06;;;16.41;100.00
11049;BME280;5577;42.706;23.160;2023-06-14T02:57:53;93918.47;;;16.41;100.00
11049;BME280;5577;42.706;23.160;2023-06-14T03:00:37;93922.72;;;16.42;100.00
11049;BME280;5577;42.706;23.160;2023-06-14T03:03:22;93926.53;;;16.45;100.00
11049;BME280;5577;42.706;23.160;2023-06-14T03:06:08;93925.75;;;16.44;100.00
11049;BME280;5577;42.706;23.160;2023-06-14T03:08:53;93924.59;;;16.45;100.00
11049;BME280;5577;42.706;23.160;2023-06-14T03:11:38;93929.19;;;16.48;100.00
11049;BME280;5577;42.706;23.160;2023-06-14T03:14:22;93929.56;;;16.50;100.00
11049;BME280;5577;42.706;23.160;2023-06-14T03:17:06;93940.63;;;16.52;100.00
11049;BME280;5577;42.706;23.160;2023-06-14T03:19:51;93941.38;;;16.56;100.00
11049;BME280;5577;42.706;23.160;2023-06-14T03:22:35;93937.19;;;16.59;100.00
11049;BME280;5577;42.706;23.160;2023-06-14T03:25:20;93946.72;;;16.60;100.00
11049;BME280;5577;42.706;23.160;2023-06-14T03:28:05;93939.84;;;16.59;100.00
11049;BME280;5577;42.706;23.160;2023-06-14T03:30:49;93944.41;;;16.62;100.00
11049;BME280;5577;42.706;23.160;2023-06-14T03:33:33;93942.53;;;16.59;100.00
11049;BME280;5577;42.706;23.160;2023-06-14T03:36:17;93936.78;;;16.57;100.00
11049;BME280;5577;42.706;23.160;2023-06-14T03:39:01;93948.59;;;16.59;100.00
11049;BME280;5577;42.706;23.160;2023-06-14T03:41:45;93942.50;;;16.62;100.00
11049;BME280;5577;42.706;23.160;2023-06-14T03:44:29;93942.13;;;16.57;100.00
11049;BME280;5577;42.706;23.160;2023-06-14T03:47:13;93939.81;;;16.62;100.00
11049;BME280;5577;42.706;23.160;2023-06-14T03:49:57;93946.28;;;16.68;100.00
11049;BME280;5577;42.706;23.160;2023-06-14T03:52:41;93939.06;;;16.69;100.00
11049;BME280;5577;42.706;23.160;2023-06-14T03:55:27;93949.31;;;16.74;100.00
11049;BME280;5577;42.706;23.160;2023-06-14T03:58:11;93948.16;;;16.75;100.00
11049;BME280;5577;42.706;23.160;2023-06-14T04:00:56;93954.25;;;16.79;100.00
11049;BME280;5577;42.706;23.160;2023-06-14T04:03:40;93952.72;;;16.85;100.00
11049;BME280;5577;42.706;23.160;2023-06-14T04:06:25;93955.34;;;16.92;100.00
11049;BME280;5577;42.706;23.160;2023-06-14T04:09:15;93951.53;;;16.96;100.00
11049;BME280;5577;42.706;23.160;2023-06-14T04:11:59;93957.59;;;17.00;100.00
11049;BME280;5577;42.706;23.160;2023-06-14T04:14:43;93952.63;;;17.06;100.00
11049;BME280;5577;42.706;23.160;2023-06-14T04:17:27;93953.38;;;17.06;100.00
11049;BME280;5577;42.706;23.160;2023-06-14T04:20:11;93957.16;;;17.12;100.00
11049;BME280;5577;42.706;23.160;2023-06-14T04:22:56;93954.81;;;17.22;100.00
11049;BME280;5577;42.706;23.160;2023-06-14T04:25:41;93939.13;;;17.27;100.00
11049;BME280;5577;42.706;23.160;2023-06-14T04:28:28;93944.84;;;17.29;100.00
11049;BME280;5577;42.706;23.160;2023-06-14T04:31:12;93946.31;;;17.34;100.00
11049;BME280;5577;42.706;23.160;2023-06-14T04:33:56;93948.59;;;17.42;100.00
11049;BME280;5577;42.706;23.160;2023-06-14T04:36:40;93955.84;;;17.49;100.00
11049;BME280;5577;42.706;23.160;2023-06-14T04:39:32;93950.44;;;17.52;100.00
11049;BME280;5577;42.706;23.160;2023-06-14T04:42:16;93947.41;;;17.50;100.00
11049;BME280;5577;42.706;23.160;2023-06-14T04:45:05;93946.59;;;17.57;100.00
11049;BME280;5577;42.706;23.160;2023-06-14T04:47:50;93952.78;;;17.47;100.00
11049;BME280;5577;42.706;23.160;2023-06-14T04:50:35;93950.53;;;17.35;100.00
11049;BME280;5577;42.706;23.160;2023-06-14T04:53:20;93958.22;;;17.26;100.00
11049;BME280;5577;42.706;23.160;2023-06-14T04:56:06;93950.22;;;17.26;100.00
11049;BME280;5577;42.706;23.160;2023-06-14T04:58:51;93952.91;;;17.22;100.00
11049;BME280;5577;42.706;23.160;2023-06-14T05:01:36;93967.00;;;17.33;100.00
11049;BME280;5577;42.706;23.160;2023-06-14T05:04:21;93963.94;;;17.35;100.00
11049;BME280;5577;42.706;23.160;2023-06-14T05:07:07;93947.09;;;17.34;100.00
11049;BME280;5577;42.706;23.160;2023-06-14T05:09:52;93964.94;;;17.55;100.00
11049;BME280;5577;42.706;23.160;2023-06-14T05:12:36;93968.41;;;17.55;100.00
11049;BME280;5577;42.706;23.160;2023-06-14T05:15:20;93966.56;;;17.45;100.00
11049;BME280;5577;42.706;23.160;2023-06-14T05:18:09;93972.16;;;17.65;100.00
11049;BME280;5577;42.706;23.160;2023-06-14T05:20:53;93977.75;;;17.84;100.00
11049;BME280;5577;42.706;23.160;2023-06-14T05:23:37;93981.56;;;17.87;100.00
11049;BME280;5577;42.706;23.160;2023-06-14T05:26:21;93975.72;;;17.99;100.00
11049;BME280;5577;42.706;23.160;2023-06-14T05:29:07;93995.47;;;18.19;100.00
11049;BME280;5577;42.706;23.160;2023-06-14T05:31:51;93995.34;;;18.29;100.00
11049;BME280;5577;42.706;23.160;2023-06-14T05:34:35;93999.16;;;18.35;100.00
11049;BME280;5577;42.706;23.160;2023-06-14T05:37:19;93990.72;;;18.37;100.00
11049;BME280;5577;42.706;23.160;2023-06-14T05:40:04;93992.28;;;18.31;100.00
11049;BME280;5577;42.706;23.160;2023-06-14T05:42:52;93993.56;;;18.16;100.00
11049;BME280;5577;42.706;23.160;2023-06-14T05:45:36;93996.59;;;18.18;100.00
11049;BME280;5577;42.706;23.160;2023-06-14T05:48:20;93993.56;;;18.16;100.00
11049;BME280;5577;42.706;23.160;2023-06-14T05:51:04;93999.66;;;18.16;100.00
11049;BME280;5577;42.706;23.160;2023-06-14T05:53:52;93997.00;;;18.16;100.00
11049;BME280;5577;42.706;23.160;2023-06-14T05:56:37;94000.09;;;18.11;100.00
11049;BME280;5577;42.706;23.160;2023-06-14T05:59:21;94004.50;;;17.88;100.00
11049;BME280;5577;42.706;23.160;2023-06-14T06:02:05;93989.47;;;17.53;100.00
11049;BME280;5577;42.706;23.160;2023-06-14T06:04:49;94005.56;;;17.43;100.00
11049;BME280;5577;42.706;23.160;2023-06-14T06:07:34;94013.94;;;17.48;100.00
11049;BME280;5577;42.706;23.160;2023-06-14T06:10:18;94016.28;;;17.43;100.00
11049;BME280;5577;42.706;23.160;2023-06-14T06:13:02;94013.94;;;17.52;100.00
11049;BME280;5577;42.706;23.160;2023-06-14T06:15:46;94011.25;;;17.48;100.00
11049;BME280;5577;42.706;23.160;2023-06-14T06:18:30;94011.66;;;17.50;100.00
11049;BME280;5577;42.706;23.160;2023-06-14T06:21:14;94018.09;;;17.56;100.00
11049;BME280;5577;42.706;23.160;2023-06-14T06:23:59;94018.09;;;17.60;100.00
11049;BME280;5577;42.706;23.160;2023-06-14T06:26:47;94013.75;;;17.76;100.00
11049;BME280;5577;42.706;23.160;2023-06-14T06:29:32;94017.50;;;17.89;100.00
11049;BME280;5577;42.706;23.160;2023-06-14T06:32:16;94017.41;;;18.00;100.00
11049;BME280;5577;42.706;23.160;2023-06-14T06:34:59;94021.09;;;18.16;100.00
11049;BME280;5577;42.706;23.160;2023-06-14T06:37:43;94009.66;;;18.12;100.00
11049;BME280;5577;42.706;23.160;2023-06-14T06:40:27;94008.81;;;18.22;100.00
11049;BME280;5577;42.706;23.160;2023-06-14T06:43:12;94014.00;;;18.43;100.00
11049;BME280;5577;42.706;23.160;2023-06-14T06:46:00;94014.56;;;18.65;100.00
11049;BME280;5577;42.706;23.160;2023-06-14T06:48:44;94012.78;;;18.51;100.00
11049;BME280;5577;42.706;23.160;2023-06-14T06:51:28;94014.00;;;18.47;100.00
11049;BME280;5577;42.706;23.160;2023-06-14T06:54:12;94012.88;;;18.41;100.00
11049;BME280;5577;42.706;23.160;2023-06-14T06:56:56;93978.59;;;18.22;100.00
11049;BME280;5577;42.706;23.160;2023-06-14T06:59:40;94020.34;;;18.60;100.00
11049;BME280;5577;42.706;23.160;2023-06-14T07:02:24;94015.28;;;18.69;100.00
11049;BME280;5577;42.706;23.160;2023-06-14T07:05:08;94021.63;;;18.85;100.00
11049;BME280;5577;42.706;23.160;2023-06-14T07:07:52;94008.34;;;19.08;100.00
11049;BME280;5577;42.706;23.160;2023-06-14T07:10:36;94007.63;;;19.34;100.00
11049;BME280;5577;42.706;23.160;2023-06-14T07:13:21;94002.44;;;19.50;100.00
11049;BME280;5577;42.706;23.160;2023-06-14T07:16:05;93977.69;;;19.66;100.00
11049;BME280;5577;42.706;23.160;2023-06-14T07:18:49;94001.38;;;19.71;100.00
11049;BME280;5577;42.706;23.160;2023-06-14T07:21:33;93996.47;;;19.93;100.00
11049;BME280;5577;42.706;23.160;2023-06-14T07:24:17;93995.22;;;20.24;100.00
11049;BME280;5577;42.706;23.160;2023-06-14T07:27:01;93986.31;;;20.27;100.00
11049;BME280;5577;42.706;23.160;2023-06-14T07:29:46;93997.97;;;19.94;100.00
11049;BME280;5577;42.706;23.160;2023-06-14T07:32:30;93993.88;;;19.86;100.00
11049;BME280;5577;42.706;23.160;2023-06-14T07:35:14;93991.09;;;19.93;100.00
11049;BME280;5577;42.706;23.160;2023-06-14T07:37:58;93994.78;;;20.48;100.00
11049;BME280;5577;42.706;23.160;2023-06-14T07:40:43;93990.72;;;20.17;100.00
11049;BME280;5577;42.706;23.160;2023-06-14T07:43:26;93997.75;;;20.08;100.00
11049;BME280;5577;42.706;23.160;2023-06-14T07:46:11;93986.16;;;20.14;100.00
11049;BME280;5577;42.706;23.160;2023-06-14T07:48:55;93995.75;;;20.58;100.00
11049;BME280;5577;42.706;23.160;2023-06-14T07:51:39;93994.22;;;20.37;100.00
11049;BME280;5577;42.706;23.160;2023-06-14T07:54:23;93999.72;;;20.73;100.00
11049;BME280;5577;42.706;23.160;2023-06-14T07:57:10;94010.13;;;20.71;100.00
11049;BME280;5577;42.706;23.160;2023-06-14T07:59:54;94009.75;;;20.92;100.00
11049;BME280;5577;42.706;23.160;2023-06-14T08:02:38;94005.34;;;21.01;100.00
11049;BME280;5577;42.706;23.160;2023-06-14T08:05:22;94017.50;;;21.09;100.00
11049;BME280;5577;42.706;23.160;2023-06-14T08:08:07;94019.88;;;20.84;100.00
11049;BME280;5577;42.706;23.160;2023-06-14T08:10:51;94014.66;;;20.97;100.00
11049;BME280;5577;42.706;23.160;2023-06-14T08:13:34;94011.78;;;21.07;100.00
11049;BME280;5577;42.706;23.160;2023-06-14T08:16:18;94021.09;;;21.03;100.00
11049;BME280;5577;42.706;23.160;2023-06-14T08:19:03;94015.31;;;20.81;100.00
11049;BME280;5577;42.706;23.160;2023-06-14T08:21:47;94027.72;;;20.56;100.00
11049;BME280;5577;42.706;23.160;2023-06-14T08:24:32;94027.50;;;20.66;100.00
11049;BME280;5577;42.706;23.160;2023-06-14T08:27:16;94028.31;;;20.86;100.00
11049;BME280;5577;42.706;23.160;2023-06-14T08:30:00;94027.44;;;20.93;100.00
11049;BME280;5577;42.706;23.160;2023-06-14T08:32:44;94020.41;;;21.18;100.00
11049;BME280;5577;42.706;23.160;2023-06-14T08:35:28;94019.88;;;21.43;100.00
11049;BME280;5577;42.706;23.160;2023-06-14T08:38:13;94021.31;;;21.31;100.00
11049;BME280;5577;42.706;23.160;2023-06-14T08:40:57;94018.06;;;21.40;100.00
11049;BME280;5577;42.706;23.160;2023-06-14T08:43:42;94013.81;;;21.39;100.00
11049;BME280;5577;42.706;23.160;2023-06-14T08:46:26;94012.94;;;21.45;100.00
11049;BME280;5577;42.706;23.160;2023-06-14T08:49:12;94011.84;;;21.78;100.00
11049;BME280;5577;42.706;23.160;2023-06-14T08:52:00;94011.97;;;22.39;100.00
11049;BME280;5577;42.706;23.160;2023-06-14T08:54:45;94013.59;;;22.81;100.00
11049;BME280;5577;42.706;23.160;2023-06-14T08:57:32;93992.63;;;22.57;100.00
11049;BME280;5577;42.706;23.160;2023-06-14T09:00:19;94014.41;;;23.23;100.00
11049;BME280;5577;42.706;23.160;2023-06-14T09:03:04;94008.03;;;23.83;100.00
11049;BME280;5577;42.706;23.160;2023-06-14T09:05:57;94012.13;;;23.75;100.00
11049;BME280;5577;42.706;23.160;2023-06-14T09:08:43;94005.25;;;23.33;100.00
11049;BME280;5577;42.706;23.160;2023-06-14T09:11:27;93999.09;;;22.75;100.00
11049;BME280;5577;42.706;23.160;2023-06-14T09:14:11;94001.09;;;22.87;100.00
11049;BME280;5577;42.706;23.160;2023-06-14T09:16:55;93989.41;;;23.06;100.00
11049;BME280;5577;42.706;23.160;2023-06-14T09:19:39;93999.00;;;23.07;100.00
11049;BME280;5577;42.706;23.160;2023-06-14T09:22:23;93998.56;;;23.09;100.00
11049;BME280;5577;42.706;23.160;2023-06-14T09:25:07;93992.00;;;23.63;100.00
11049;BME280;5577;42.706;23.160;2023-06-14T09:27:52;93990.63;;;24.21;100.00
11049;BME280;5577;42.706;23.160;2023-06-14T09:30:37;93987.63;;;23.94;100.00
11049;BME280;5577;42.706;23.160;2023-06-14T09:33:21;93983.38;;;23.81;100.00
11049;BME280;5577;42.706;23.160;2023-06-14T09:36:10;93977.63;;;23.54;100.00
11049;BME280;5577;42.706;23.160;2023-06-14T09:39:03;93977.84;;;23.84;100.00
11049;BME280;5577;42.706;23.160;2023-06-14T09:41:52;93981.94;;;24.26;100.00
11049;BME280;5577;42.706;23.160;2023-06-14T09:44:36;93969.06;;;24.30;100.00
11049;BME280;5577;42.706;23.160;2023-06-14T09:47:21;93979.94;;;24.64;100.00
11049;BME280;5577;42.706;23.160;2023-06-14T09:50:06;93985.69;;;24.41;100.00
11049;BME280;5577;42.706;23.160;2023-06-14T09:52:52;93975.47;;;23.86;100.00
11049;BME280;5577;42.706;23.160;2023-06-14T09:55:37;93980.75;;;23.40;100.00
11049;BME280;5577;42.706;23.160;2023-06-14T09:58:23;93984.56;;;23.14;100.00
11049;BME280;5577;42.706;23.160;2023-06-14T10:01:08;93969.41;;;23.04;100.00
11049;BME280;5577;42.706;23.160;2023-06-14T10:03:55;93979.25;;;23.39;100.00
11049;BME280;5577;42.706;23.160;2023-06-14T10:06:45;93973.19;;;23.47;100.00
11049;BME280;5577;42.706;23.160;2023-06-14T10:09:30;93972.03;;;24.11;100.00
11049;BME280;5577;42.706;23.160;2023-06-14T10:12:17;93962.72;;;24.92;100.00
11049;BME280;5577;42.706;23.160;2023-06-14T10:15:08;93956.13;;;24.59;100.00
11049;BME280;5577;42.706;23.160;2023-06-14T10:17:57;93950.94;;;24.65;100.00
11049;BME280;5577;42.706;23.160;2023-06-14T10:23:58;93949.81;;;24.96;100.00
11049;BME280;5577;42.706;23.160;2023-06-14T10:26:53;93945.94;;;24.85;100.00
11049;BME280;5577;42.706;23.160;2023-06-14T10:30:05;93944.63;;;25.33;100.00
11049;BME280;5577;42.706;23.160;2023-06-14T10:33:06;93920.91;;;25.37;100.00
11049;BME280;5577;42.706;23.160;2023-06-14T10:36:07;93934.72;;;25.69;100.00
11049;BME280;5577;42.706;23.160;2023-06-14T10:39:04;93933.22;;;26.17;100.00
11049;BME280;5577;42.706;23.160;2023-06-14T10:41:54;93936.63;;;25.51;100.00
11049;BME280;5577;42.706;23.160;2023-06-14T10:44:43;93934.81;;;25.57;100.00
11049;BME280;5577;42.706;23.160;2023-06-14T10:47:32;93926.81;;;25.93;100.00
11049;BME280;5577;42.706;23.160;2023-06-14T10:50:27;93929.88;;;26.79;100.00
11049;BME280;5577;42.706;23.160;2023-06-14T10:53:24;93934.47;;;25.46;100.00
11049;BME280;5577;42.706;23.160;2023-06-14T10:56:08;93930.84;;;24.96;100.00
11049;BME280;5577;42.706;23.160;2023-06-14T10:58:52;93922.03;;;24.83;100.00
11049;BME280;5577;42.706;23.160;2023-06-14T11:01:40;93901.84;;;24.07;100.00
11049;BME280;5577;42.706;23.160;2023-06-14T11:04:48;93909.06;;;25.00;100.00
11049;BME280;5577;42.706;23.160;2023-06-14T11:10:43;93899.88;;;25.28;100.00
11049;BME280;5577;42.706;23.160;2023-06-14T11:13:29;93900.38;;;25.36;100.00
11049;BME280;5577;42.706;23.160;2023-06-14T11:16:15;93899.19;;;25.76;100.00
11049;BME280;5577;42.706;23.160;2023-06-14T11:19:01;93865.47;;;25.77;100.00
11049;BME280;5577;42.706;23.160;2023-06-14T11:21:48;93898.19;;;25.92;100.00
11049;BME280;5577;42.706;23.160;2023-06-14T11:24:33;93898.41;;;26.15;98.71
11049;BME280;5577;42.706;23.160;2023-06-14T11:27:17;93884.13;;;26.96;100.00
11049;BME280;5577;42.706;23.160;2023-06-14T11:30:01;93899.44;;;26.00;100.00
11049;BME280;5577;42.706;23.160;2023-06-14T11:32:49;93901.28;;;25.33;100.00
11049;BME280;5577;42.706;23.160;2023-06-14T11:35:34;93896.81;;;25.87;100.00
11049;BME280;5577;42.706;23.160;2023-06-14T11:38:18;93895.28;;;26.44;99.57
11049;BME280;5577;42.706;23.160;2023-06-14T11:41:02;93891.53;;;26.77;100.00
11049;BME280;5577;42.706;23.160;2023-06-14T11:43:46;93892.09;;;26.18;100.00
11049;BME280;5577;42.706;23.160;2023-06-14T11:46:30;93881.66;;;25.29;100.00
11049;BME280;5577;42.706;23.160;2023-06-14T11:49:14;93872.13;;;25.46;100.00
11049;BME280;5577;42.706;23.160;2023-06-14T11:51:58;93878.81;;;26.02;100.00
11049;BME280;5577;42.706;23.160;2023-06-14T11:54:42;93870.09;;;26.43;96.29
11049;BME280;5577;42.706;23.160;2023-06-14T11:57:27;93867.97;;;26.02;100.00
11049;BME280;5577;42.706;23.160;2023-06-14T12:00:11;93864.97;;;26.45;100.00
11049;BME280;5577;42.706;23.160;2023-06-14T12:02:56;93866.03;;;26.39;99.56
11049;BME280;5577;42.706;23.160;2023-06-14T12:05:41;93861.31;;;26.03;99.67
11049;BME280;5577;42.706;23.160;2023-06-14T12:08:32;93853.78;;;25.50;100.00
11049;BME280;5577;42.706;23.160;2023-06-14T12:11:22;93849.41;;;25.52;98.93
11049;BME280;5577;42.706;23.160;2023-06-14T12:14:07;93853.50;;;26.05;98.96
11049;BME280;5577;42.706;23.160;2023-06-14T12:17:04;93848.53;;;26.85;94.59
11049;BME280;5577;42.706;23.160;2023-06-14T12:19:50;93848.25;;;27.33;87.16
11049;BME280;5577;42.706;23.160;2023-06-14T12:22:34;93845.53;;;27.33;91.81
11049;BME280;5577;42.706;23.160;2023-06-14T12:25:31;93849.03;;;27.34;90.19
11049;BME280;5577;42.706;23.160;2023-06-14T12:28:15;93850.41;;;27.11;89.88
11049;BME280;5577;42.706;23.160;2023-06-14T12:30:59;93838.78;;;27.11;83.00
11049;BME280;5577;42.706;23.160;2023-06-14T12:33:43;93844.44;;;26.89;84.17
11049;BME280;5577;42.706;23.160;2023-06-14T12:36:29;93830.72;;;26.21;89.74
11049;BME280;5577;42.706;23.160;2023-06-14T12:39:13;93823.34;;;25.46;95.18
11049;BME280;5577;42.706;23.160;2023-06-14T12:41:58;93811.63;;;25.18;100.00
11049;BME280;5577;42.706;23.160;2023-06-14T12:44:41;93817.72;;;25.31;100.00
11049;BME280;5577;42.706;23.160;2023-06-14T12:47:26;93819.25;;;25.02;100.00
11049;BME280;5577;42.706;23.160;2023-06-14T12:50:10;93817.28;;;25.02;98.61
11049;BME280;5577;42.706;23.160;2023-06-14T12:52:54;93809.84;;;24.93;100.00
11049;BME280;5577;42.706;23.160;2023-06-14T12:55:38;93810.34;;;24.70;100.00
11049;BME280;5577;42.706;23.160;2023-06-14T12:58:22;93807.09;;;24.41;100.00
11049;BME280;5577;42.706;23.160;2023-06-14T13:01:07;93805.16;;;24.20;100.00
11049;BME280;5577;42.706;23.160;2023-06-14T13:03:51;93806.66;;;23.87;100.00
11049;BME280;5577;42.706;23.160;2023-06-14T13:06:37;93810.59;;;23.74;100.00
11049;BME280;5577;42.706;23.160;2023-06-14T13:09:21;93810.44;;;23.56;100.00
11049;BME280;5577;42.706;23.160;2023-06-14T13:12:06;93804.22;;;23.68;100.00
11049;BME280;5577;42.706;23.160;2023-06-14T13:14:50;93813.50;;;23.79;100.00
11049;BME280;5577;42.706;23.160;2023-06-14T13:17:35;93820.69;;;24.07;100.00
11049;BME280;5577;42.706;23.160;2023-06-14T13:20:22;93819.78;;;24.23;100.00
11049;BME280;5577;42.706;23.160;2023-06-14T13:23:05;93826.25;;;24.25;100.00
11049;BME280;5577;42.706;23.160;2023-06-14T13:25:51;93835.28;;;24.10;100.00
11049;BME280;5577;42.706;23.160;2023-06-14T13:28:35;93829.75;;;23.67;100.00
11049;BME280;5577;42.706;23.160;2023-06-14T13:31:19;93834.44;;;23.41;100.00
11049;BME280;5577;42.706;23.160;2023-06-14T13:34:03;93833.44;;;22.98;100.00
11049;BME280;5577;42.706;23.160;2023-06-14T13:36:49;93843.53;;;22.69;100.00
11049;BME280;5577;42.706;23.160;2023-06-14T13:39:33;93843.72;;;22.49;100.00
11049;BME280;5577;42.706;23.160;2023-06-14T13:42:17;93838.88;;;22.28;100.00
11049;BME280;5577;42.706;23.160;2023-06-14T13:45:02;93834.69;;;22.39;100.00
11049;BME280;5577;42.706;23.160;2023-06-14T13:47:47;93827.63;;;22.01;100.00
11049;BME280;5577;42.706;23.160;2023-06-14T13:50:32;93845.38;;;21.54;100.00
11049;BME280;5577;42.706;23.160;2023-06-14T13:53:17;93839.09;;;21.25;100.00
11049;BME280;5577;42.706;23.160;2023-06-14T13:56:01;93842.28;;;20.84;100.00
11049;BME280;5577;42.706;23.160;2023-06-14T13:58:45;93839.72;;;20.42;100.00
11049;BME280;5577;42.706;23.160;2023-06-14T14:01:29;93827.59;;;19.91;100.00
11049;BME280;5577;42.706;23.160;2023-06-14T14:04:13;93832.00;;;19.58;100.00
11049;BME280;5577;42.706;23.160;2023-06-14T14:06:57;93847.41;;;19.31;100.00
11049;BME280;5577;42.706;23.160;2023-06-14T14:09:41;93857.47;;;19.24;100.00
11049;BME280;5577;42.706;23.160;2023-06-14T14:12:26;93856.44;;;19.14;100.00
11049;BME280;5577;42.706;23.160;2023-06-14T14:15:11;93859.50;;;19.16;100.00
11049;BME280;5577;42.706;23.160;2023-06-14T14:17:58;93872.03;;;19.23;100.00
11049;BME280;5577;42.706;23.160;2023-06-14T14:20:42;93868.72;;;19.42;100.00
11049;BME280;5577;42.706;23.160;2023-06-14T14:23:26;93871.81;;;19.40;100.00
11049;BME280;5577;42.706;23.160;2023-06-14T14:26:10;93879.47;;;19.42;100.00
11049;BME280;5577;42.706;23.160;2023-06-14T14:28:54;93875.13;;;19.48;100.00
11049;BME280;5577;42.706;23.160;2023-06-14T14:31:38;93873.28;;;19.45;100.00
11049;BME280;5577;42.706;23.160;2023-06-14T14:34:24;93884.75;;;19.45;100.00